Airfield :
LOGIN :

Register | Disclaimer

   EN    FR    IT 

 










Legend :    VFR   Marginal VFR   IFR   Intensive IFR   Very Intensive IFR
Visi :
Ceiling :
>= 8 km
>= 3000ft
5 to 8 km
1000 to 3000 ft
1500m to 5 km
500 to 1000 ft
800 to 1500m
200 to 500 ft
< 800m
< 200 ft
Symbols :   Thunderstorms  Fog  Heavy snow  Heavy precipitations  Wind > 20 kt
SIGMETs :     Misc.  Thunderstorms  Icing  Turbulence  Mountain Waves  Volcanic Ashes







- Airport Elevation : 299 ft
- IATA code : EDM
- Download approach charts


LFRI - La Roche Sur Yon - Les Ajoncs

CURRENT METAR :
  • 181600Z AUTO 14008KT 9999 SCT025 BKN034 OVC076 07/04 Q1015 BECMG BKN014

EXPIRED METARs :
  • 181530Z AUTO 15007KT 120V180 9999 FEW026 SCT034 OVC078 07/04 Q1015 BECMG BKN014
  • 181500Z AUTO 15007KT 9999 FEW029 SCT037 OVC076 08/04 Q1015 NOSIG
  • 181430Z AUTO 14007KT CAVOK 07/04 Q1015 NOSIG
  • 181400Z AUTO 13006KT CAVOK 07/04 Q1016 NOSIG
  • 181330Z AUTO 14006KT 090V170 CAVOK 07/03 Q1016 NOSIG

TAF TAF LFRI
Valid from the 18 at 12:00 until the 19 at 12:00 UTC


181100Z 1812/1912 12005KT CAVOK
BECMG 1812/1814 15010KT
BECMG 1817/1820 BKN014
TEMPO 1821/1903 3000 RA BKN005 BKN040
TEMPO 1903/1906 4000 SHRA BKN005 BKN015
BECMG 1904/1907 18005KT
TEMPO 1906/1912 BKN004
No reported NOTAMs for that airfield.



MET'MAP, your aeronautical weather chart ! - Copyright ORBIFLY December 2007 - Disclaimer

ORBIFLY MET'MAP TEAM :

Programming & Development : Alexandra Zaïnal
Concept & Development : Baudouin d'Aumeries
Co-Development & Prog : Marc-Olivier Méhu
Technical & hardware support : Manuel Goepfert

Contact : metmap@orbifly.com




SOURCES & CREDITS :

   NOAA